createdAt,value
2018-06-01T00:02:12.767Z,18.67
2018-06-01T00:04:40.691Z,18.76
2018-06-01T00:07:08.613Z,18.70
2018-06-01T00:09:36.525Z,18.55
2018-06-01T00:12:04.441Z,18.65
2018-06-01T00:14:32.373Z,18.71
2018-06-01T00:17:00.314Z,18.66
2018-06-01T00:19:28.233Z,18.78
2018-06-01T00:21:56.167Z,18.66
2018-06-01T00:24:24.098Z,18.79
2018-06-01T00:26:52.026Z,18.87
2018-06-01T00:29:19.941Z,18.77
2018-06-01T00:31:47.840Z,18.64
2018-06-01T00:34:15.752Z,18.76
2018-06-01T00:36:43.675Z,18.61
2018-06-01T00:39:11.592Z,18.63
2018-06-01T00:41:39.492Z,18.72
2018-06-01T00:44:07.420Z,18.70
2018-06-01T00:46:35.364Z,18.59
2018-06-01T00:49:03.288Z,18.59
2018-06-01T00:51:31.237Z,18.74
2018-06-01T00:53:59.152Z,18.50
2018-06-01T00:56:27.068Z,18.41
2018-06-01T00:58:54.995Z,18.55
2018-06-01T01:01:22.899Z,18.39
2018-06-01T01:03:50.826Z,18.35
2018-06-01T01:06:18.734Z,18.34
2018-06-01T01:08:46.653Z,18.43
2018-06-01T01:11:14.587Z,18.28
2018-06-01T01:13:42.488Z,18.03
2018-06-01T01:16:10.429Z,18.22
2018-06-01T01:18:38.355Z,18.27
2018-06-01T01:21:06.266Z,18.23
2018-06-01T01:23:34.204Z,18.36
2018-06-01T01:26:02.123Z,18.12
2018-06-01T01:28:30.037Z,18.29
2018-06-01T01:30:57.951Z,18.33
2018-06-01T01:33:25.995Z,18.28
2018-06-01T01:35:53.894Z,18.40
2018-06-01T01:38:21.806Z,18.30
2018-06-01T01:40:58.226Z,18.34
2018-06-01T01:43:26.292Z,18.19
2018-06-01T01:45:54.178Z,18.19
2018-06-01T01:48:22.102Z,18.06
2018-06-01T01:50:50.012Z,18.20
2018-06-01T01:53:17.939Z,18.02
2018-06-01T01:55:45.848Z,18.00
2018-06-01T01:58:13.802Z,18.02
2018-06-01T02:00:41.732Z,18.21
2018-06-01T02:03:09.646Z,18.28
2018-06-01T02:05:37.560Z,18.26
2018-06-01T02:08:05.507Z,18.23
2018-06-01T02:10:33.417Z,18.17
2018-06-01T02:13:01.376Z,18.09
2018-06-01T02:15:29.275Z,18.04
2018-06-01T02:17:57.211Z,18.15
2018-06-01T02:20:25.133Z,17.93
2018-06-01T02:22:53.059Z,18.06
2018-06-01T02:25:21.065Z,18.07
2018-06-01T02:27:48.993Z,18.19
2018-06-01T02:30:16.912Z,18.19
2018-06-01T02:32:44.980Z,18.25
2018-06-01T02:35:12.894Z,18.00
2018-06-01T02:37:40.801Z,18.18
2018-06-01T02:40:08.719Z,18.39
2018-06-01T02:42:36.641Z,18.29
2018-06-01T02:45:04.566Z,18.28
2018-06-01T02:47:32.493Z,18.15
2018-06-01T02:50:00.415Z,18.18
2018-06-01T02:52:28.355Z,18.21
2018-06-01T02:54:56.259Z,18.18
2018-06-01T02:57:24.188Z,18.20
2018-06-01T02:59:52.090Z,18.25
2018-06-01T03:02:20.035Z,18.29
2018-06-01T03:04:47.928Z,18.48
2018-06-01T03:07:16.487Z,18.49
2018-06-01T03:09:44.390Z,18.47
2018-06-01T03:12:12.284Z,18.62
2018-06-01T03:14:40.201Z,18.73
2018-06-01T03:17:08.119Z,18.55
2018-06-01T03:19:36.047Z,18.49
2018-06-01T03:22:03.973Z,18.38
2018-06-01T03:24:32.068Z,18.42
2018-06-01T03:26:59.981Z,18.38
2018-06-01T03:29:27.886Z,18.44
2018-06-01T03:31:55.796Z,18.23
2018-06-01T03:34:23.715Z,18.35
2018-06-01T03:36:51.644Z,18.52
2018-06-01T03:39:19.583Z,18.53
2018-06-01T03:41:47.514Z,18.54
2018-06-01T03:44:15.414Z,18.57
2018-06-01T03:46:43.317Z,18.52
2018-06-01T03:49:11.246Z,18.43
2018-06-01T03:51:39.135Z,18.43
2018-06-01T03:54:07.068Z,18.50
2018-06-01T03:56:34.977Z,18.62
2018-06-01T03:59:02.880Z,18.72
2018-06-01T04:01:30.843Z,18.70
2018-06-01T04:03:58.730Z,18.55
2018-06-01T04:06:26.636Z,18.48
2018-06-01T04:08:54.559Z,18.57
2018-06-01T04:11:22.464Z,18.52
2018-06-01T04:13:50.367Z,18.62
2018-06-01T04:16:18.362Z,18.66
2018-06-01T04:18:46.264Z,18.61
2018-06-01T04:21:14.192Z,18.67
2018-06-01T04:23:42.104Z,18.67
2018-06-01T04:26:10.010Z,18.80
2018-06-01T04:28:37.972Z,18.78
2018-06-01T04:31:05.870Z,18.99
2018-06-01T04:33:33.786Z,18.99
2018-06-01T04:36:02.320Z,18.84
2018-06-01T04:38:30.241Z,18.97
2018-06-01T04:40:58.199Z,18.83
2018-06-01T04:43:26.136Z,18.93
2018-06-01T04:45:54.071Z,19.04
2018-06-01T04:48:22.021Z,18.99
2018-06-01T04:50:49.911Z,19.06
2018-06-01T04:53:17.962Z,19.06
2018-06-01T04:55:45.843Z,19.11
2018-06-01T04:58:13.751Z,19.07
2018-06-01T05:00:41.941Z,18.79
2018-06-01T05:03:09.859Z,18.99
2018-06-01T05:05:37.782Z,19.12
2018-06-01T05:08:05.699Z,19.06
2018-06-01T05:10:33.614Z,19.06
2018-06-01T05:13:01.543Z,19.27
2018-06-01T05:15:29.485Z,19.30
2018-06-01T05:17:57.412Z,19.41
2018-06-01T05:20:25.321Z,19.37
2018-06-01T05:22:53.261Z,19.52
2018-06-01T05:25:21.184Z,19.74
2018-06-01T05:27:49.119Z,19.79
2018-06-01T05:30:17.017Z,19.75
2018-06-01T05:32:44.964Z,19.97
2018-06-01T05:35:12.910Z,20.14
2018-06-01T05:37:40.889Z,20.14
2018-06-01T05:40:08.799Z,20.24
2018-06-01T05:42:36.746Z,20.40
2018-06-01T05:45:04.662Z,20.62
2018-06-01T05:47:32.604Z,20.65
2018-06-01T05:50:00.502Z,20.71
2018-06-01T05:52:28.441Z,20.69
2018-06-01T05:54:56.391Z,20.65
2018-06-01T05:57:24.304Z,20.83
2018-06-01T05:59:52.217Z,20.83
2018-06-01T06:02:20.125Z,20.75
2018-06-01T06:04:48.038Z,20.79
2018-06-01T06:07:15.949Z,20.92
2018-06-01T06:09:43.912Z,20.94
2018-06-01T06:12:11.855Z,20.94
2018-06-01T06:14:39.763Z,21.14
2018-06-01T06:17:07.793Z,21.23
2018-06-01T06:19:35.727Z,21.18
2018-06-01T06:22:03.673Z,21.28
2018-06-01T06:24:31.600Z,21.40
2018-06-01T06:26:59.577Z,21.57
2018-06-01T06:29:27.505Z,21.68
2018-06-01T06:31:55.448Z,21.72
2018-06-01T06:34:23.368Z,21.69
2018-06-01T06:36:51.298Z,21.91
2018-06-01T06:39:19.209Z,21.99
2018-06-01T06:41:47.131Z,22.19
2018-06-01T06:44:15.058Z,22.17
2018-06-01T06:46:42.949Z,22.33
2018-06-01T06:49:10.895Z,22.37
2018-06-01T06:51:38.822Z,22.60
2018-06-01T06:54:06.772Z,22.65
2018-06-01T06:56:34.700Z,22.80
2018-06-01T06:59:02.651Z,23.14
2018-06-01T07:01:30.561Z,23.49
2018-06-01T07:03:58.478Z,23.71
2018-06-01T07:06:26.382Z,24.27
2018-06-01T07:08:54.291Z,24.48
2018-06-01T07:11:22.240Z,24.79
2018-06-01T07:13:50.165Z,24.75
2018-06-01T07:16:18.105Z,24.98
2018-06-01T07:18:46.015Z,25.30
2018-06-01T07:21:13.972Z,25.63
2018-06-01T07:23:41.934Z,25.56
2018-06-01T07:26:09.889Z,25.79
2018-06-01T07:28:37.818Z,26.22
2018-06-01T07:31:05.715Z,26.49
2018-06-01T07:33:33.641Z,26.33
2018-06-01T07:36:01.574Z,26.61
2018-06-01T07:38:29.533Z,26.70
2018-06-01T07:40:57.469Z,26.89
2018-06-01T07:43:25.370Z,27.25
2018-06-01T07:45:53.268Z,26.86
2018-06-01T07:48:21.203Z,26.87
2018-06-01T07:50:49.115Z,27.13
2018-06-01T07:53:17.023Z,27.28
2018-06-01T07:55:44.947Z,27.60
2018-06-01T07:58:12.854Z,27.73
2018-06-01T08:00:40.790Z,27.94
2018-06-01T08:03:08.683Z,27.69
2018-06-01T08:05:36.583Z,27.87
2018-06-01T08:08:04.518Z,27.93
2018-06-01T08:10:32.440Z,28.26
2018-06-01T08:13:00.385Z,28.30
2018-06-01T08:15:28.303Z,28.09
2018-06-01T08:17:56.229Z,28.59
2018-06-01T08:20:24.148Z,28.72
2018-06-01T08:22:52.162Z,28.52
2018-06-01T08:25:20.088Z,28.94
2018-06-01T08:27:48.007Z,29.58
2018-06-01T08:30:15.954Z,29.64
2018-06-01T08:32:43.859Z,29.37
2018-06-01T08:35:11.778Z,29.33
2018-06-01T08:37:39.674Z,29.04
2018-06-01T08:40:07.611Z,29.57
2018-06-01T08:42:35.527Z,29.78
2018-06-01T08:45:03.454Z,30.17
2018-06-01T08:47:31.417Z,30.22
2018-06-01T08:49:59.467Z,30.11
2018-06-01T08:52:27.443Z,30.26
2018-06-01T08:54:55.302Z,30.48
2018-06-01T08:57:23.317Z,30.45
2018-06-01T08:59:51.265Z,30.63
2018-06-01T09:02:19.182Z,30.63
2018-06-01T09:04:47.116Z,30.83
2018-06-01T09:07:15.041Z,30.42
2018-06-01T09:09:42.997Z,30.90
2018-06-01T09:12:10.954Z,31.22
2018-06-01T09:14:38.870Z,31.57
2018-06-01T09:17:06.787Z,31.29
2018-06-01T09:19:34.721Z,30.84
2018-06-01T09:22:02.627Z,31.07
2018-06-01T09:24:30.566Z,31.59
2018-06-01T09:26:58.465Z,31.73
2018-06-01T09:29:26.391Z,32.08
2018-06-01T09:31:54.316Z,31.89
2018-06-01T09:34:22.285Z,31.39
2018-06-01T09:36:50.146Z,31.35
2018-06-01T09:39:18.066Z,31.75
2018-06-01T09:41:45.977Z,32.15
2018-06-01T09:44:13.870Z,31.87
2018-06-01T09:46:41.812Z,32.12
2018-06-01T09:49:09.729Z,31.97
2018-06-01T09:51:37.648Z,31.85
2018-06-01T09:54:05.565Z,32.38
2018-06-01T09:56:33.505Z,32.69
2018-06-01T09:59:01.407Z,32.83
2018-06-01T10:01:29.306Z,32.69
2018-06-01T10:03:57.219Z,32.57
2018-06-01T10:06:25.148Z,32.17
2018-06-01T10:08:53.125Z,32.17
2018-06-01T10:11:21.008Z,32.54
2018-06-01T10:13:48.923Z,32.87
2018-06-01T10:16:16.839Z,32.90
2018-06-01T10:18:44.819Z,32.92
2018-06-01T10:21:13.324Z,32.69
2018-06-01T10:23:41.251Z,32.43
2018-06-01T10:26:09.160Z,32.82
2018-06-01T10:28:37.074Z,33.11
2018-06-01T10:31:04.996Z,33.26
2018-06-01T10:33:32.895Z,32.94
2018-06-01T10:36:00.808Z,33.38
2018-06-01T10:38:28.714Z,32.64
2018-06-01T10:40:57.240Z,32.91
2018-06-01T10:43:25.130Z,33.42
2018-06-01T10:45:53.067Z,33.45
2018-06-01T10:48:20.982Z,33.53
2018-06-01T10:50:48.894Z,33.75
2018-06-01T10:53:16.810Z,34.16
2018-06-01T10:55:44.719Z,34.11
2018-06-01T10:58:12.635Z,34.03
2018-06-01T11:00:40.547Z,34.10
2018-06-01T11:03:08.476Z,34.05
2018-06-01T11:05:36.377Z,33.94
2018-06-01T11:08:04.325Z,34.25
2018-06-01T11:10:32.211Z,33.32
2018-06-01T11:13:00.137Z,33.20
2018-06-01T11:15:28.040Z,33.76
2018-06-01T11:17:55.999Z,33.91
2018-06-01T11:20:23.947Z,33.72
2018-06-01T11:22:51.839Z,33.99
2018-06-01T11:25:19.837Z,33.76
2018-06-01T11:27:47.730Z,33.58
2018-06-01T11:30:15.656Z,33.95
2018-06-01T11:32:43.538Z,34.30
2018-06-01T11:35:11.488Z,34.51
2018-06-01T11:37:39.383Z,34.51
2018-06-01T11:40:07.299Z,34.36
2018-06-01T11:42:35.414Z,34.76
2018-06-01T11:45:03.302Z,34.99
2018-06-01T11:47:31.296Z,34.95
2018-06-01T11:49:59.194Z,35.10
2018-06-01T11:52:27.105Z,34.84
2018-06-01T11:54:55.006Z,34.84
2018-06-01T11:57:22.911Z,34.55
2018-06-01T11:59:50.802Z,34.42
2018-06-01T12:02:18.714Z,34.64
2018-06-01T12:04:46.625Z,34.35
2018-06-01T12:07:14.569Z,33.94
2018-06-01T12:09:42.452Z,34.11
2018-06-01T12:12:10.359Z,34.50
2018-06-01T12:14:38.301Z,34.69
2018-06-01T12:17:06.217Z,34.19
2018-06-01T12:19:34.157Z,34.46
2018-06-01T12:22:02.063Z,34.71
2018-06-01T12:24:29.968Z,34.61
2018-06-01T12:26:57.890Z,34.45
2018-06-01T12:29:25.810Z,34.68
2018-06-01T12:31:53.718Z,34.98
2018-06-01T12:34:21.655Z,34.92
2018-06-01T12:36:49.582Z,34.98
2018-06-01T12:39:17.492Z,34.80
2018-06-01T12:41:45.410Z,34.93
2018-06-01T12:44:13.323Z,34.19
2018-06-01T12:46:41.256Z,34.42
2018-06-01T12:49:09.735Z,34.47
2018-06-01T12:51:37.653Z,34.64
2018-06-01T12:54:05.628Z,34.66
2018-06-01T12:56:33.507Z,34.92
2018-06-01T12:59:01.571Z,34.92
2018-06-01T13:01:29.651Z,35.06
2018-06-01T13:03:57.567Z,34.92
2018-06-01T13:06:25.518Z,34.81
2018-06-01T13:08:53.500Z,34.00
2018-06-01T13:11:21.398Z,34.33
2018-06-01T13:13:49.406Z,34.59
2018-06-01T13:16:17.315Z,34.63
2018-06-01T13:18:45.232Z,34.68
2018-06-01T13:21:13.148Z,34.07
2018-06-01T13:23:41.072Z,34.07
2018-06-01T13:26:08.989Z,34.08
2018-06-01T13:28:36.907Z,34.29
2018-06-01T13:31:04.812Z,34.35
2018-06-01T13:33:32.762Z,33.59
2018-06-01T13:36:00.804Z,33.90
2018-06-01T13:38:28.746Z,34.08
2018-06-01T13:40:56.682Z,34.01
2018-06-01T13:43:24.573Z,34.14
2018-06-01T13:45:52.556Z,34.02
2018-06-01T13:48:20.460Z,33.97
2018-06-01T13:50:48.365Z,34.15
2018-06-01T13:53:16.290Z,33.66
2018-06-01T13:55:44.218Z,33.77
2018-06-01T13:58:12.132Z,33.78
2018-06-01T14:00:40.062Z,34.22
2018-06-01T14:03:08.016Z,33.95
2018-06-01T14:05:35.953Z,34.02
2018-06-01T14:08:03.894Z,33.67
2018-06-01T14:10:31.790Z,33.94
2018-06-01T14:12:59.701Z,33.86
2018-06-01T14:15:27.699Z,34.06
2018-06-01T14:17:55.648Z,34.01
2018-06-01T14:20:23.581Z,33.78
2018-06-01T14:22:51.493Z,33.74
2018-06-01T14:25:19.415Z,33.79
2018-06-01T14:27:47.328Z,33.97
2018-06-01T14:30:15.250Z,33.96
2018-06-01T14:32:43.231Z,33.96
2018-06-01T14:35:11.218Z,33.83
2018-06-01T14:37:39.117Z,33.97
2018-06-01T14:40:07.011Z,33.89
2018-06-01T14:42:34.918Z,33.55
2018-06-01T14:45:02.896Z,33.83
2018-06-01T14:47:30.909Z,33.53
2018-06-01T14:49:58.823Z,33.40
2018-06-01T14:52:26.704Z,33.50
2018-06-01T14:54:54.619Z,33.49
2018-06-01T14:57:22.583Z,33.28
2018-06-01T14:59:50.620Z,33.30
2018-06-01T15:02:18.655Z,33.26
2018-06-01T15:04:46.628Z,32.97
2018-06-01T15:07:14.553Z,32.86
2018-06-01T15:09:42.494Z,32.91
2018-06-01T15:12:10.872Z,32.59
2018-06-01T15:14:39.216Z,32.66
2018-06-01T15:17:07.152Z,32.66
2018-06-01T15:19:35.134Z,32.64
2018-06-01T15:22:03.075Z,32.32
2018-06-01T15:24:30.980Z,32.25
2018-06-01T15:26:58.909Z,32.46
2018-06-01T15:29:26.832Z,32.35
2018-06-01T15:31:54.831Z,32.30
2018-06-01T15:34:22.719Z,32.35
2018-06-01T15:36:51.144Z,32.26
2018-06-01T15:39:19.060Z,32.33
2018-06-01T15:41:46.989Z,31.90
2018-06-01T15:44:14.974Z,32.20
2018-06-01T15:46:42.933Z,31.72
2018-06-01T15:49:10.870Z,31.30
2018-06-01T15:51:38.776Z,31.20
2018-06-01T15:54:06.760Z,30.98
2018-06-01T15:56:34.662Z,30.56
2018-06-01T15:59:02.589Z,30.51
2018-06-01T16:01:30.525Z,30.57
2018-06-01T16:03:58.577Z,30.35
2018-06-01T16:06:26.484Z,30.34
2018-06-01T16:08:54.395Z,30.36
2018-06-01T16:11:22.316Z,30.25
2018-06-01T16:13:50.225Z,30.07
2018-06-01T16:16:18.130Z,29.98
2018-06-01T16:18:47.028Z,29.80
2018-06-01T16:21:14.985Z,29.97
2018-06-01T16:23:43.708Z,29.85
2018-06-01T16:26:11.612Z,29.70
2018-06-01T16:28:39.516Z,29.82
2018-06-01T16:31:07.430Z,29.78
2018-06-01T16:33:35.344Z,29.68
2018-06-01T16:36:03.243Z,29.65
2018-06-01T16:38:31.411Z,29.51
2018-06-01T16:40:59.325Z,29.53
2018-06-01T16:43:27.236Z,29.43
2018-06-01T16:45:55.141Z,29.28
2018-06-01T16:48:23.076Z,29.28
2018-06-01T16:50:51.744Z,29.17
2018-06-01T16:53:19.689Z,29.16
2018-06-01T16:55:47.600Z,29.05
2018-06-01T16:58:15.522Z,28.92
2018-06-01T17:00:43.432Z,29.11
2018-06-01T17:03:11.363Z,29.12
2018-06-01T17:05:39.347Z,29.13
2018-06-01T17:08:07.318Z,28.98
2018-06-01T17:10:35.373Z,29.03
2018-06-01T17:13:03.299Z,29.02
2018-06-01T17:15:31.370Z,28.92
2018-06-01T17:17:59.395Z,28.92
2018-06-01T17:20:27.355Z,28.95
2018-06-01T17:22:55.279Z,28.99
2018-06-01T17:25:23.215Z,28.99
2018-06-01T17:27:51.218Z,28.76
2018-06-01T17:30:19.241Z,28.68
2018-06-01T17:32:47.272Z,28.61
2018-06-01T17:35:15.282Z,28.47
2018-06-01T17:37:43.224Z,28.50
2018-06-01T17:40:11.132Z,28.53
2018-06-01T17:42:39.099Z,28.57
2018-06-01T17:45:07.009Z,28.39
2018-06-01T17:47:35.350Z,28.42
2018-06-01T17:50:03.263Z,28.50
2018-06-01T17:52:31.194Z,28.40
2018-06-01T17:54:59.414Z,28.26
2018-06-01T17:57:27.400Z,28.20
2018-06-01T17:59:55.306Z,28.35
2018-06-01T18:02:23.231Z,28.31
2018-06-01T18:04:51.169Z,28.25
2018-06-01T18:07:19.108Z,28.15
2018-06-01T18:09:47.291Z,28.04
2018-06-01T18:12:15.201Z,28.02
2018-06-01T18:14:43.210Z,27.96
2018-06-01T18:17:11.093Z,28.13
2018-06-01T18:19:39.011Z,27.98
2018-06-01T18:22:06.974Z,27.65
2018-06-01T18:24:34.975Z,27.44
2018-06-01T18:27:02.868Z,27.29
2018-06-01T18:29:30.811Z,27.46
2018-06-01T18:31:58.700Z,27.47
2018-06-01T18:34:26.663Z,27.35
2018-06-01T18:36:54.549Z,27.28
2018-06-01T18:39:22.472Z,27.31
2018-06-01T18:41:50.493Z,27.28
2018-06-01T18:44:18.379Z,27.22
2018-06-01T18:46:46.271Z,26.91
2018-06-01T18:49:14.209Z,26.98
2018-06-01T18:51:42.180Z,26.91
2018-06-01T18:54:10.996Z,26.92
2018-06-01T18:56:38.969Z,26.86
2018-06-01T18:59:07.092Z,26.92
2018-06-01T19:01:35.004Z,26.93
2018-06-01T19:04:02.954Z,26.64
2018-06-01T19:06:31.074Z,26.66
2018-06-01T19:08:59.004Z,26.60
2018-06-01T19:11:26.915Z,26.34
2018-06-01T19:13:54.869Z,26.40
2018-06-01T19:16:22.822Z,26.34
2018-06-01T19:18:51.707Z,26.20
2018-06-01T19:21:19.656Z,26.35
2018-06-01T19:23:47.591Z,26.09
2018-06-01T19:26:15.546Z,25.89
2018-06-01T19:28:43.462Z,25.97
2018-06-01T19:31:11.401Z,26.06
2018-06-01T19:33:39.410Z,25.86
2018-06-01T19:36:07.381Z,25.91
2018-06-01T19:38:35.291Z,25.86
2018-06-01T19:41:03.264Z,25.75
2018-06-01T19:43:31.215Z,25.79
2018-06-01T19:45:59.161Z,25.65
2018-06-01T19:48:27.073Z,25.49
2018-06-01T19:50:55.052Z,25.48
2018-06-01T19:53:22.987Z,25.29
2018-06-01T19:55:50.956Z,25.39
2018-06-01T19:58:18.952Z,25.42
2018-06-01T20:00:46.881Z,25.48
2018-06-01T20:03:14.850Z,25.27
2018-06-01T20:05:43.639Z,25.37
2018-06-01T20:08:11.564Z,25.25
2018-06-01T20:10:39.495Z,25.17
2018-06-01T20:13:07.499Z,25.05
2018-06-01T20:15:35.354Z,25.03
2018-06-01T20:18:03.313Z,25.04
2018-06-01T20:20:31.248Z,25.16
2018-06-01T20:22:59.182Z,25.01
2018-06-01T20:25:27.123Z,24.72
2018-06-01T20:27:55.103Z,24.85
2018-06-01T20:30:23.081Z,24.65
2018-06-01T20:32:51.021Z,24.71
2018-06-01T20:35:18.955Z,24.74
2018-06-01T20:37:46.877Z,24.70
2018-06-01T20:40:15.466Z,24.80
2018-06-01T20:42:43.459Z,24.64
2018-06-01T20:45:11.394Z,24.53
2018-06-01T20:47:39.318Z,24.39
2018-06-01T20:50:07.346Z,24.44
2018-06-01T20:52:35.410Z,24.38
2018-06-01T20:55:03.366Z,24.18
2018-06-01T20:57:31.278Z,24.39
2018-06-01T20:59:59.217Z,24.35
2018-06-01T21:02:27.128Z,24.27
2018-06-01T21:04:55.664Z,24.21
2018-06-01T21:07:26.577Z,24.31
2018-06-01T21:09:54.536Z,24.23
2018-06-01T21:12:22.464Z,24.24
2018-06-01T21:14:50.376Z,24.25
2018-06-01T21:17:18.313Z,24.05
2018-06-01T21:19:46.228Z,23.86
2018-06-01T21:22:14.156Z,24.03
2018-06-01T21:24:42.208Z,23.92
2018-06-01T21:27:10.111Z,24.01
2018-06-01T21:29:38.042Z,24.16
2018-06-01T21:32:05.927Z,24.10
2018-06-01T21:34:33.864Z,23.90
2018-06-01T21:37:01.768Z,24.17
2018-06-01T21:39:29.842Z,24.10
2018-06-01T21:41:57.734Z,24.03
2018-06-01T21:44:25.706Z,24.17
2018-06-01T21:46:54.527Z,24.10
2018-06-01T21:49:22.449Z,23.88
2018-06-01T21:51:50.380Z,23.54
2018-06-01T21:54:18.306Z,23.66
2018-06-01T21:56:46.234Z,23.60
2018-06-01T21:59:14.217Z,23.08
2018-06-01T22:01:43.127Z,22.37
2018-06-01T22:04:11.052Z,22.47
2018-06-01T22:06:38.953Z,22.85
2018-06-01T22:09:06.854Z,22.21
2018-06-01T22:11:34.804Z,22.23
2018-06-01T22:14:02.867Z,22.09
2018-06-01T22:16:30.778Z,22.33
2018-06-01T22:18:58.686Z,22.61
2018-06-01T22:21:26.615Z,22.42
2018-06-01T22:23:54.512Z,22.27
2018-06-01T22:26:22.435Z,22.47
2018-06-01T22:28:50.352Z,22.57
2018-06-01T22:31:19.011Z,22.82
2018-06-01T22:33:46.908Z,22.81
2018-06-01T22:36:14.807Z,22.73
2018-06-01T22:38:42.745Z,22.69
2018-06-01T22:41:10.831Z,22.71
2018-06-01T22:43:38.740Z,22.96
2018-06-01T22:46:06.652Z,22.91
2018-06-01T22:48:34.554Z,22.91
2018-06-01T22:51:02.486Z,22.68
2018-06-01T22:53:30.426Z,22.61
2018-06-01T22:55:58.763Z,22.56
2018-06-01T22:58:26.734Z,22.49
2018-06-01T23:00:54.660Z,22.52
2018-06-01T23:03:22.594Z,22.34
2018-06-01T23:05:50.513Z,22.24
2018-06-01T23:08:18.426Z,22.55
2018-06-01T23:10:46.335Z,22.51
2018-06-01T23:13:14.257Z,22.33
2018-06-01T23:15:42.190Z,22.18
2018-06-01T23:18:10.162Z,22.47
2018-06-01T23:20:38.188Z,22.27
2018-06-01T23:23:06.117Z,22.23
2018-06-01T23:25:34.060Z,22.22
2018-06-01T23:28:01.979Z,22.25
2018-06-01T23:30:29.943Z,22.01
2018-06-01T23:32:57.867Z,21.79
2018-06-01T23:35:25.797Z,21.78
2018-06-01T23:37:53.748Z,21.77
2018-06-01T23:40:21.674Z,21.85
2018-06-01T23:42:49.581Z,21.79
2018-06-01T23:45:17.491Z,21.81
2018-06-01T23:47:45.423Z,21.34
2018-06-01T23:50:13.452Z,21.38
2018-06-01T23:52:41.411Z,21.20
2018-06-01T23:55:09.365Z,21.39
2018-06-01T23:57:37.254Z,21.50
